createdAt,value
2019-04-29T00:00:57.147Z,101929.92
2019-04-29T00:02:04.486Z,101932.44
2019-04-29T00:03:11.448Z,101923.57
2019-04-29T00:04:18.347Z,101930.40
2019-04-29T00:05:25.417Z,101924.47
2019-04-29T00:06:32.709Z,101927.91
2019-04-29T00:07:39.805Z,101927.50
2019-04-29T00:08:47.058Z,101926.23
2019-04-29T00:09:54.145Z,101925.00
2019-04-29T00:11:00.897Z,101928.41
2019-04-29T00:12:08.085Z,101928.06
2019-04-29T00:13:15.550Z,101925.52
2019-04-29T00:14:22.795Z,101930.67
2019-04-29T00:15:44.082Z,101927.70
2019-04-29T00:17:06.962Z,101927.30
2019-04-29T00:18:25.059Z,101934.92
2019-04-29T00:19:54.000Z,101935.77
2019-04-29T00:21:01.111Z,101930.16
2019-04-29T00:22:08.212Z,101940.28
2019-04-29T00:23:15.170Z,101937.26
2019-04-29T00:24:21.913Z,101933.83
2019-04-29T00:25:29.124Z,101932.92
2019-04-29T00:26:36.317Z,101940.64
2019-04-29T00:27:43.589Z,101938.94
2019-04-29T00:28:50.685Z,101940.62
2019-04-29T00:29:57.439Z,101936.42
2019-04-29T00:31:04.628Z,101941.15
2019-04-29T00:32:11.898Z,101942.88
2019-04-29T00:33:18.999Z,101944.56
2019-04-29T00:34:25.766Z,101945.87
2019-04-29T00:35:32.846Z,101948.42
2019-04-29T00:36:47.175Z,101949.28
2019-04-29T00:38:11.988Z,101952.30
2019-04-29T00:39:40.757Z,101951.48
2019-04-29T00:41:09.095Z,101942.98
2019-04-29T00:42:30.097Z,101946.78
2019-04-29T00:43:42.037Z,101948.78
2019-04-29T00:44:48.810Z,101945.17
2019-04-29T00:45:56.006Z,101946.30
2019-04-29T00:47:02.746Z,101949.22
2019-04-29T00:48:09.846Z,101949.22
2019-04-29T00:49:16.697Z,101945.38
2019-04-29T00:50:23.437Z,101953.00
2019-04-29T00:51:30.187Z,101950.50
2019-04-29T00:52:37.342Z,101951.76
2019-04-29T00:53:44.952Z,101947.16
2019-04-29T00:54:57.194Z,101948.08
2019-04-29T00:56:04.133Z,101953.05
2019-04-29T00:57:10.949Z,101953.08
2019-04-29T00:58:17.687Z,101949.28
2019-04-29T00:59:24.833Z,101957.34
2019-04-29T01:00:38.872Z,101949.61
2019-04-29T01:01:46.057Z,101946.45
2019-04-29T01:02:52.787Z,101951.44
2019-04-29T01:03:59.922Z,101954.00
2019-04-29T01:05:07.637Z,101954.00
2019-04-29T01:06:14.396Z,101953.95
2019-04-29T01:07:21.146Z,101951.81
2019-04-29T01:08:28.624Z,101955.16
2019-04-29T01:09:35.925Z,101955.98
2019-04-29T01:10:43.431Z,101957.62
2019-04-29T01:11:50.575Z,101955.45
2019-04-29T01:12:57.337Z,101954.95
2019-04-29T01:14:04.086Z,101960.05
2019-04-29T01:15:11.575Z,101956.23
2019-04-29T01:16:18.322Z,101958.19
2019-04-29T01:17:26.418Z,101956.83
2019-04-29T01:18:33.560Z,101955.42
2019-04-29T01:19:40.742Z,101961.72
2019-04-29T01:20:47.461Z,101954.91
2019-04-29T01:21:54.582Z,101958.41
2019-04-29T01:23:01.411Z,101960.64
2019-04-29T01:24:08.202Z,101963.66
2019-04-29T01:25:15.494Z,101958.64
2019-04-29T01:26:44.200Z,101962.94
2019-04-29T01:27:57.978Z,101965.84
2019-04-29T01:29:05.637Z,101965.35
2019-04-29T01:31:22.480Z,101964.05
2019-04-29T01:32:29.239Z,101968.66
2019-04-29T01:33:36.002Z,101963.88
2019-04-29T01:34:53.817Z,101966.86
2019-04-29T01:36:29.349Z,101967.25
2019-04-29T01:37:41.779Z,101966.49
2019-04-29T01:38:49.636Z,101971.01
2019-04-29T01:40:06.065Z,101968.47
2019-04-29T01:41:16.674Z,101969.29
2019-04-29T01:42:32.823Z,101970.53
2019-04-29T01:43:57.822Z,101969.27
2019-04-29T01:45:05.318Z,101967.94
2019-04-29T01:46:12.393Z,101973.92
2019-04-29T01:47:19.237Z,101970.88
2019-04-29T01:48:26.199Z,101972.20
2019-04-29T01:49:33.014Z,101971.01
2019-04-29T01:50:40.492Z,101971.89
2019-04-29T01:51:47.318Z,101972.68
2019-04-29T01:52:54.106Z,101966.27
2019-04-29T01:54:01.214Z,101978.58
2019-04-29T01:55:08.499Z,101972.66
2019-04-29T01:56:15.603Z,101972.26
2019-04-29T01:57:22.657Z,101975.67
2019-04-29T01:58:29.424Z,101975.17
2019-04-29T01:59:36.258Z,101977.99
2019-04-29T02:00:43.485Z,101972.41
2019-04-29T02:01:50.329Z,101974.47
2019-04-29T02:02:57.151Z,101975.25
2019-04-29T02:04:04.699Z,101972.34
2019-04-29T02:05:11.786Z,101971.89
2019-04-29T02:06:18.621Z,101970.56
2019-04-29T02:07:26.049Z,101969.30
2019-04-29T02:08:32.821Z,101967.55
2019-04-29T02:09:45.938Z,101967.09
2019-04-29T02:10:52.697Z,101973.41
2019-04-29T02:12:01.214Z,101973.44
2019-04-29T02:13:08.303Z,101973.13
2019-04-29T02:14:15.058Z,101978.33
2019-04-29T02:15:21.820Z,101976.75
2019-04-29T02:16:28.921Z,101973.25
2019-04-29T02:17:36.302Z,101977.01
2019-04-29T02:18:43.973Z,101976.16
2019-04-29T02:19:51.073Z,101983.87
2019-04-29T02:20:57.840Z,101984.31
2019-04-29T02:22:32.721Z,101984.32
2019-04-29T02:23:47.764Z,101983.05
2019-04-29T02:24:57.996Z,101988.67
2019-04-29T02:26:05.322Z,101987.08
2019-04-29T02:27:12.551Z,101986.78
2019-04-29T02:28:19.304Z,101989.39
2019-04-29T02:29:26.410Z,101989.00
2019-04-29T02:30:52.221Z,101987.70
2019-04-29T02:31:58.979Z,101987.78
2019-04-29T02:33:05.757Z,101993.34
2019-04-29T02:34:12.597Z,101987.86
2019-04-29T02:35:19.353Z,101986.98
2019-04-29T02:36:29.910Z,101989.55
2019-04-29T02:37:37.933Z,101989.61
2019-04-29T02:38:51.036Z,101985.37
2019-04-29T02:40:04.674Z,101984.95
2019-04-29T02:41:30.825Z,101991.23
2019-04-29T02:42:52.729Z,101985.67
2019-04-29T02:44:01.104Z,101989.05
2019-04-29T02:45:12.515Z,101995.02
2019-04-29T02:46:19.621Z,101992.95
2019-04-29T02:47:26.397Z,101994.27
2019-04-29T02:48:34.669Z,101989.95
2019-04-29T02:49:42.035Z,101994.62
2019-04-29T02:50:49.395Z,101994.72
2019-04-29T02:51:56.511Z,101995.59
2019-04-29T02:53:03.265Z,101998.03
2019-04-29T02:54:10.439Z,101995.04
2019-04-29T02:55:22.162Z,101992.47
2019-04-29T02:56:29.293Z,101996.37
2019-04-29T02:57:41.331Z,101994.24
2019-04-29T02:58:58.194Z,101989.13
2019-04-29T03:00:32.678Z,101986.11
2019-04-29T03:01:52.995Z,101987.41
2019-04-29T03:03:13.075Z,101991.65
2019-04-29T03:04:22.742Z,101991.18
2019-04-29T03:05:33.355Z,101995.36
2019-04-29T03:06:40.221Z,101990.70
2019-04-29T03:07:46.971Z,101989.85
2019-04-29T03:08:53.708Z,101992.39
2019-04-29T03:10:00.536Z,101991.55
2019-04-29T03:11:08.057Z,101990.27
2019-04-29T03:12:15.065Z,101988.10
2019-04-29T03:13:22.544Z,101989.55
2019-04-29T03:14:29.589Z,101990.76
2019-04-29T03:15:38.328Z,101989.03
2019-04-29T03:16:45.517Z,101986.41
2019-04-29T03:17:59.998Z,101988.38
2019-04-29T03:19:11.595Z,101991.83
2019-04-29T03:20:24.204Z,101986.32
2019-04-29T03:21:35.128Z,101985.42
2019-04-29T03:22:43.016Z,101979.37
2019-04-29T03:23:50.081Z,101983.55
2019-04-29T03:24:56.995Z,101979.34
2019-04-29T03:26:03.939Z,101983.60
2019-04-29T03:27:11.061Z,101978.02
2019-04-29T03:28:17.969Z,101978.53
2019-04-29T03:29:24.846Z,101983.91
2019-04-29T03:30:31.755Z,101977.86
2019-04-29T03:31:39.957Z,101983.28
2019-04-29T03:32:47.229Z,101987.99
2019-04-29T03:33:54.621Z,101990.20
2019-04-29T03:35:01.716Z,101988.51
2019-04-29T03:36:09.085Z,101980.34
2019-04-29T03:37:15.826Z,101985.91
2019-04-29T03:38:22.589Z,101986.75
2019-04-29T03:39:29.805Z,101991.11
2019-04-29T03:40:36.562Z,101989.42
2019-04-29T03:41:43.317Z,101991.14
2019-04-29T03:42:50.087Z,101994.04
2019-04-29T03:43:57.615Z,101986.84
2019-04-29T03:45:04.806Z,101987.60
2019-04-29T03:46:11.554Z,101992.20
2019-04-29T03:47:19.248Z,101987.99
2019-04-29T03:48:26.446Z,101985.75
2019-04-29T03:49:33.812Z,101978.89
2019-04-29T03:50:41.013Z,101980.61
2019-04-29T03:51:47.771Z,101988.66
2019-04-29T03:52:54.848Z,101981.45
2019-04-29T03:54:01.603Z,101979.77
2019-04-29T03:55:08.467Z,101985.59
2019-04-29T03:56:15.244Z,101990.70
2019-04-29T03:57:22.107Z,101983.52
2019-04-29T03:58:28.868Z,101991.78
2019-04-29T03:59:35.667Z,101981.36
2019-04-29T04:00:44.695Z,101988.00
2019-04-29T04:02:10.994Z,101986.41
2019-04-29T04:03:36.946Z,101988.52
2019-04-29T04:05:01.319Z,101992.78
2019-04-29T04:06:26.883Z,101990.57
2019-04-29T04:07:43.627Z,101990.22
2019-04-29T04:09:05.519Z,101997.41
2019-04-29T04:10:03.769Z,101995.78
2019-04-29T04:11:12.266Z,101997.02
2019-04-29T04:12:19.047Z,102002.13
2019-04-29T04:13:26.170Z,102006.88
2019-04-29T04:14:33.255Z,102005.75
2019-04-29T04:15:40.202Z,102004.51
2019-04-29T04:17:15.009Z,102007.57
2019-04-29T04:18:26.664Z,102007.96
2019-04-29T04:19:33.970Z,102008.45
2019-04-29T04:20:40.792Z,102011.41
2019-04-29T04:21:47.928Z,102013.08
2019-04-29T04:22:54.701Z,102016.06
2019-04-29T04:24:01.526Z,102019.39
2019-04-29T04:25:08.605Z,102017.46
2019-04-29T04:26:15.720Z,102016.94
2019-04-29T04:27:22.633Z,102015.53
2019-04-29T04:28:29.507Z,102018.06
2019-04-29T04:29:36.235Z,102024.94
2019-04-29T04:30:43.299Z,102024.06
2019-04-29T04:31:50.396Z,102024.97
2019-04-29T04:32:57.468Z,102026.59
2019-04-29T04:34:04.572Z,102028.15
2019-04-29T04:35:11.858Z,102024.41
2019-04-29T04:36:18.630Z,102027.69
2019-04-29T04:37:25.456Z,102028.08
2019-04-29T04:38:32.332Z,102026.91
2019-04-29T04:39:40.978Z,102023.98
2019-04-29T04:40:58.018Z,102027.77
2019-04-29T04:42:04.728Z,102020.95
2019-04-29T04:43:11.620Z,102024.06
2019-04-29T04:44:18.431Z,102022.47
2019-04-29T04:45:25.402Z,102027.90
2019-04-29T04:46:32.517Z,102027.13
2019-04-29T04:47:39.409Z,102024.94
2019-04-29T04:48:46.512Z,102026.81
2019-04-29T04:49:53.745Z,102027.69
2019-04-29T04:51:00.479Z,102027.77
2019-04-29T04:52:07.251Z,102032.59
2019-04-29T04:53:14.022Z,102024.20
2019-04-29T04:54:20.841Z,102033.51
2019-04-29T04:55:30.658Z,102034.00
2019-04-29T04:56:37.416Z,102029.84
2019-04-29T04:57:44.329Z,102034.06
2019-04-29T04:58:51.068Z,102030.81
2019-04-29T04:59:57.947Z,102034.73
2019-04-29T05:02:25.912Z,102032.31
2019-04-29T05:03:32.982Z,102037.16
2019-04-29T05:04:40.142Z,102032.15
2019-04-29T05:05:47.012Z,102039.67
2019-04-29T05:06:54.082Z,102040.97
2019-04-29T05:08:01.571Z,102038.08
2019-04-29T05:09:08.958Z,102035.62
2019-04-29T05:10:16.339Z,102039.66
2019-04-29T05:11:23.398Z,102042.72
2019-04-29T05:12:30.215Z,102047.98
2019-04-29T05:13:37.674Z,102049.76
2019-04-29T05:14:44.734Z,102046.09
2019-04-29T05:15:51.837Z,102051.69
2019-04-29T05:16:58.585Z,102050.11
2019-04-29T05:18:05.303Z,102048.52
2019-04-29T05:19:12.064Z,102050.72
2019-04-29T05:20:18.870Z,102051.61
2019-04-29T05:21:25.669Z,102057.06
2019-04-29T05:22:32.542Z,102058.84
2019-04-29T05:23:41.738Z,102058.38
2019-04-29T05:24:48.655Z,102060.50
2019-04-29T05:25:56.161Z,102061.75
2019-04-29T05:27:02.879Z,102063.05
2019-04-29T05:28:09.922Z,102063.89
2019-04-29T05:29:16.706Z,102064.73
2019-04-29T05:30:23.913Z,102060.92
2019-04-29T05:31:31.239Z,102056.66
2019-04-29T05:32:38.347Z,102060.53
2019-04-29T05:33:45.054Z,102064.91
2019-04-29T05:34:55.020Z,102060.77
2019-04-29T05:36:19.555Z,102069.33
2019-04-29T05:37:32.528Z,102071.50
2019-04-29T05:38:52.301Z,102068.53
2019-04-29T05:39:59.150Z,102065.27
2019-04-29T05:41:06.126Z,102063.27
2019-04-29T05:42:16.208Z,102062.09
2019-04-29T05:43:33.460Z,102067.23
2019-04-29T05:44:59.658Z,102059.64
2019-04-29T05:46:25.731Z,102063.02
2019-04-29T05:47:36.788Z,102065.65
2019-04-29T05:48:43.942Z,102068.73
2019-04-29T05:50:11.764Z,102070.91
2019-04-29T05:51:47.962Z,102066.80
2019-04-29T05:53:25.737Z,102068.50
2019-04-29T05:54:33.581Z,102074.48
2019-04-29T05:55:40.697Z,102075.45
2019-04-29T05:56:47.611Z,102076.78
2019-04-29T05:58:02.933Z,102073.00
2019-04-29T05:59:08.481Z,102078.14
2019-04-29T06:00:18.890Z,102070.95
2019-04-29T06:01:26.180Z,102076.12
2019-04-29T06:02:36.320Z,102073.17
2019-04-29T06:03:44.192Z,102077.03
2019-04-29T06:04:52.389Z,102081.31
2019-04-29T06:05:58.989Z,102085.14
2019-04-29T06:07:05.887Z,102079.22
2019-04-29T06:08:12.651Z,102080.92
2019-04-29T06:09:19.383Z,102083.06
2019-04-29T06:10:26.166Z,102083.58
2019-04-29T06:11:33.278Z,102084.92
2019-04-29T06:12:40.202Z,102087.53
2019-04-29T06:13:47.304Z,102093.12
2019-04-29T06:14:54.386Z,102091.44
2019-04-29T06:16:01.235Z,102096.47
2019-04-29T06:17:07.975Z,102100.28
2019-04-29T06:18:17.696Z,102093.08
2019-04-29T06:19:23.558Z,102096.91
2019-04-29T06:20:30.363Z,102091.87
2019-04-29T06:21:37.089Z,102096.91
2019-04-29T06:22:43.843Z,102093.06
2019-04-29T06:23:50.602Z,102098.53
2019-04-29T06:24:57.349Z,102093.45
2019-04-29T06:26:04.081Z,102097.78
2019-04-29T06:27:10.818Z,102098.66
2019-04-29T06:28:21.586Z,102100.01
2019-04-29T06:29:26.922Z,102098.36
2019-04-29T06:30:36.860Z,102102.66
2019-04-29T06:31:42.469Z,102095.91
2019-04-29T06:32:49.535Z,102100.18
2019-04-29T06:33:56.301Z,102105.75
2019-04-29T06:35:03.195Z,102099.37
2019-04-29T06:36:10.403Z,102103.14
2019-04-29T06:37:17.684Z,102105.30
2019-04-29T06:38:24.919Z,102111.64
2019-04-29T06:39:32.045Z,102112.94
2019-04-29T06:40:38.830Z,102103.14
2019-04-29T06:41:46.974Z,102104.00
2019-04-29T06:42:55.176Z,102105.28
2019-04-29T06:44:06.696Z,102112.07
2019-04-29T06:45:11.036Z,102111.66
2019-04-29T06:46:18.280Z,102110.92
2019-04-29T06:47:25.384Z,102114.41
2019-04-29T06:48:32.464Z,102114.02
2019-04-29T06:49:39.256Z,102111.96
2019-04-29T06:50:49.563Z,102113.25
2019-04-29T06:51:55.233Z,102118.41
2019-04-29T06:53:01.988Z,102121.00
2019-04-29T06:54:09.108Z,102124.87
2019-04-29T06:55:15.970Z,102115.53
2019-04-29T06:56:23.137Z,102111.31
2019-04-29T06:57:30.630Z,102116.86
2019-04-29T06:58:38.438Z,102116.89
2019-04-29T06:59:47.518Z,102113.98
2019-04-29T07:00:55.971Z,102120.42
2019-04-29T07:02:02.500Z,102119.20
2019-04-29T07:03:09.228Z,102120.51
2019-04-29T07:04:15.986Z,102117.94
2019-04-29T07:05:23.043Z,102118.35
2019-04-29T07:06:30.219Z,102120.50
2019-04-29T07:07:36.992Z,102119.72
2019-04-29T07:08:43.717Z,102118.02
2019-04-29T07:09:50.445Z,102120.16
2019-04-29T07:11:01.098Z,102115.95
2019-04-29T07:12:08.091Z,102116.37
2019-04-29T07:13:17.966Z,102120.22
2019-04-29T07:14:24.148Z,102116.84
2019-04-29T07:15:30.908Z,102117.71
2019-04-29T07:16:37.639Z,102124.11
2019-04-29T07:17:44.735Z,102121.55
2019-04-29T07:18:53.790Z,102116.88
2019-04-29T07:20:02.084Z,102118.18
2019-04-29T07:21:11.864Z,102122.84
2019-04-29T07:22:20.768Z,102128.84
2019-04-29T07:23:25.696Z,102128.82
2019-04-29T07:24:32.470Z,102125.40
2019-04-29T07:25:39.567Z,102124.11
2019-04-29T07:26:46.317Z,102128.80
2019-04-29T07:27:53.068Z,102124.95
2019-04-29T07:28:59.950Z,102122.40
2019-04-29T07:30:08.377Z,102128.78
2019-04-29T07:31:15.575Z,102124.09
2019-04-29T07:32:23.102Z,102127.94
2019-04-29T07:33:29.887Z,102129.61
2019-04-29T07:34:39.494Z,102139.39
2019-04-29T07:35:48.049Z,102138.08
2019-04-29T07:36:57.712Z,102135.48
2019-04-29T07:38:04.416Z,102135.45
2019-04-29T07:39:11.257Z,102139.73
2019-04-29T07:40:21.087Z,102134.16
2019-04-29T07:41:28.171Z,102132.43
2019-04-29T07:42:35.457Z,102129.38
2019-04-29T07:43:43.031Z,102139.59
2019-04-29T07:45:08.784Z,102130.61
2019-04-29T07:46:30.399Z,102133.16
2019-04-29T07:47:37.892Z,102126.77
2019-04-29T07:48:45.054Z,102133.16
2019-04-29T07:49:53.029Z,102129.70
2019-04-29T07:51:04.228Z,102124.55
2019-04-29T07:52:09.826Z,102124.48
2019-04-29T07:53:21.921Z,102123.53
2019-04-29T07:54:25.710Z,102128.14
2019-04-29T07:55:32.636Z,102132.42
2019-04-29T07:56:42.277Z,102131.47
2019-04-29T07:57:52.170Z,102127.52
2019-04-29T07:58:58.849Z,102129.59
2019-04-29T08:00:08.583Z,102127.81
2019-04-29T08:01:15.442Z,102134.58
2019-04-29T08:02:22.473Z,102131.45
2019-04-29T08:03:29.224Z,102130.08
2019-04-29T08:04:36.353Z,102132.60
2019-04-29T08:05:43.767Z,102131.23
2019-04-29T08:06:51.157Z,102126.05
2019-04-29T08:07:59.719Z,102131.22
2019-04-29T08:09:09.721Z,102132.06
2019-04-29T08:10:23.560Z,102133.27
2019-04-29T08:11:26.227Z,102131.05
2019-04-29T08:12:35.610Z,102135.64
2019-04-29T08:13:44.632Z,102136.38
2019-04-29T08:14:53.401Z,102136.19
2019-04-29T08:16:01.337Z,102135.69
2019-04-29T08:17:08.143Z,102132.77
2019-04-29T08:18:16.148Z,102128.42
2019-04-29T08:19:24.719Z,102131.64
2019-04-29T08:20:35.423Z,102129.16
2019-04-29T08:21:40.919Z,102128.84
2019-04-29T08:22:47.718Z,102129.77
2019-04-29T08:23:54.659Z,102127.28
2019-04-29T08:25:01.414Z,102132.90
2019-04-29T08:26:08.179Z,102126.69
2019-04-29T08:27:14.923Z,102129.27
2019-04-29T08:28:22.092Z,102130.96
2019-04-29T08:29:30.831Z,102130.03
2019-04-29T08:30:41.879Z,102136.02
2019-04-29T08:31:47.001Z,102134.20
2019-04-29T08:32:54.182Z,102131.23
2019-04-29T08:34:01.355Z,102134.58
2019-04-29T08:35:08.472Z,102137.91
2019-04-29T08:36:15.219Z,102131.36
2019-04-29T08:37:24.864Z,102140.86
2019-04-29T08:38:30.498Z,102134.57
2019-04-29T08:39:37.588Z,102140.61
2019-04-29T08:40:45.292Z,102142.60
2019-04-29T08:41:53.279Z,102142.89
2019-04-29T08:43:15.919Z,102141.23
2019-04-29T08:44:54.728Z,102151.83
2019-04-29T08:46:02.635Z,102147.09
2019-04-29T08:47:17.030Z,102150.01
2019-04-29T08:48:24.102Z,102145.45
2019-04-29T08:49:31.207Z,102149.72
2019-04-29T08:50:37.929Z,102152.11
2019-04-29T08:51:44.655Z,102144.70
2019-04-29T08:52:51.410Z,102145.94
2019-04-29T08:53:58.276Z,102141.51
2019-04-29T08:55:05.869Z,102142.35
2019-04-29T08:56:12.999Z,102145.94
2019-04-29T08:57:19.722Z,102149.28
2019-04-29T08:58:26.560Z,102142.81
2019-04-29T08:59:33.917Z,102146.08
2019-04-29T09:00:41.090Z,102148.31
2019-04-29T09:01:48.311Z,102146.95
2019-04-29T09:02:55.089Z,102150.75
2019-04-29T09:04:02.124Z,102153.13
2019-04-29T09:05:11.285Z,102154.23
2019-04-29T09:06:17.967Z,102148.34
2019-04-29T09:07:25.292Z,102147.85
2019-04-29T09:08:33.004Z,102149.66
2019-04-29T09:09:40.460Z,102148.22
2019-04-29T09:10:47.868Z,102152.39
2019-04-29T09:11:54.663Z,102141.28
2019-04-29T09:13:01.800Z,102146.20
2019-04-29T09:14:08.545Z,102144.80
2019-04-29T09:15:36.357Z,102148.09
2019-04-29T09:16:43.096Z,102154.30
2019-04-29T09:17:55.568Z,102150.02
2019-04-29T09:19:03.334Z,102141.28
2019-04-29T09:20:10.889Z,102148.02
2019-04-29T09:21:18.099Z,102147.62
2019-04-29T09:22:27.129Z,102148.32
2019-04-29T09:23:34.855Z,102146.39
2019-04-29T09:25:00.481Z,102146.50
2019-04-29T09:26:41.565Z,102155.33
2019-04-29T09:27:49.392Z,102150.84
2019-04-29T09:28:59.748Z,102154.12
2019-04-29T09:30:05.166Z,102148.87
2019-04-29T09:31:11.901Z,102156.20
2019-04-29T09:32:19.056Z,102149.99
2019-04-29T09:33:25.859Z,102150.25
2019-04-29T09:34:32.968Z,102144.77
2019-04-29T09:35:40.585Z,102153.05
2019-04-29T09:36:49.707Z,102148.16
2019-04-29T09:37:58.456Z,102141.56
2019-04-29T09:39:06.500Z,102150.44
2019-04-29T09:40:16.507Z,102137.77
2019-04-29T09:41:34.968Z,102148.37
2019-04-29T09:43:14.847Z,102140.47
2019-04-29T09:44:31.348Z,102139.53
2019-04-29T09:45:43.280Z,102145.62
2019-04-29T09:46:50.081Z,102144.16
2019-04-29T09:47:57.092Z,102148.27
2019-04-29T09:49:03.918Z,102142.02
2019-04-29T09:50:11.397Z,102142.36
2019-04-29T09:51:22.182Z,102146.14
2019-04-29T09:52:26.621Z,102138.08
2019-04-29T09:53:33.425Z,102142.36
2019-04-29T09:54:40.814Z,102137.40
2019-04-29T09:55:47.553Z,102141.97
2019-04-29T09:56:54.277Z,102144.32
2019-04-29T09:58:01.539Z,102150.52
2019-04-29T09:59:28.572Z,102149.67
2019-04-29T10:00:51.646Z,102143.83
2019-04-29T10:02:18.180Z,102145.43
2019-04-29T10:03:58.042Z,102143.24
2019-04-29T10:05:23.858Z,102142.41
2019-04-29T10:06:33.422Z,102136.21
2019-04-29T10:07:40.505Z,102137.23
2019-04-29T10:08:48.048Z,102137.66
2019-04-29T10:09:57.393Z,102140.19
2019-04-29T10:11:03.661Z,102140.09
2019-04-29T10:12:11.274Z,102128.13
2019-04-29T10:13:18.749Z,102134.63
2019-04-29T10:14:25.554Z,102135.23
2019-04-29T10:15:41.027Z,102125.78
2019-04-29T10:16:57.254Z,102133.75
2019-04-29T10:18:11.211Z,102135.07
2019-04-29T10:19:42.996Z,102127.94
2019-04-29T10:20:56.706Z,102128.92
2019-04-29T10:22:04.092Z,102127.28
2019-04-29T10:23:10.847Z,102126.85
2019-04-29T10:24:18.762Z,102124.39
2019-04-29T10:25:25.643Z,102119.38
2019-04-29T10:26:32.371Z,102119.48
2019-04-29T10:27:39.478Z,102117.56
2019-04-29T10:29:00.037Z,102119.78
2019-04-29T10:30:08.253Z,102114.13
2019-04-29T10:31:15.308Z,102112.78
2019-04-29T10:32:22.874Z,102113.84
2019-04-29T10:33:30.124Z,102117.30
2019-04-29T10:34:37.300Z,102118.05
2019-04-29T10:35:45.088Z,102110.69
2019-04-29T10:36:53.656Z,102108.56
2019-04-29T10:38:02.803Z,102104.05
2019-04-29T10:39:30.960Z,102107.13
2019-04-29T10:40:56.476Z,102104.40
2019-04-29T10:42:04.530Z,102106.52
2019-04-29T10:43:29.404Z,102107.83
2019-04-29T10:44:55.189Z,102113.84
2019-04-29T10:46:27.262Z,102109.03
2019-04-29T10:47:50.164Z,102108.07
2019-04-29T10:49:07.861Z,102104.09
2019-04-29T10:50:19.126Z,102099.40
2019-04-29T10:51:28.636Z,102110.09
2019-04-29T10:52:38.645Z,102104.96
2019-04-29T10:53:46.722Z,102102.19
2019-04-29T10:54:55.398Z,102103.78
2019-04-29T10:56:05.667Z,102103.14
2019-04-29T10:57:14.799Z,102097.64
2019-04-29T10:58:22.033Z,102097.69
2019-04-29T10:59:35.976Z,102097.94
2019-04-29T11:01:39.672Z,102095.98
2019-04-29T11:02:49.371Z,102097.55
2019-04-29T11:03:55.819Z,102098.98
2019-04-29T11:05:57.419Z,102096.62
2019-04-29T11:06:51.682Z,102097.41
2019-04-29T11:08:02.638Z,102093.56
2019-04-29T11:09:28.978Z,102102.42
2019-04-29T11:10:35.816Z,102096.75
2019-04-29T11:11:43.551Z,102097.42
2019-04-29T11:12:51.191Z,102098.53
2019-04-29T11:14:01.523Z,102090.69
2019-04-29T11:15:09.897Z,102094.97
2019-04-29T11:16:16.599Z,102095.38
2019-04-29T11:17:25.806Z,102093.11
2019-04-29T11:18:32.910Z,102088.34
2019-04-29T11:19:41.626Z,102089.44
2019-04-29T11:20:48.935Z,102094.09
2019-04-29T11:22:02.258Z,102093.56
2019-04-29T11:23:26.102Z,102088.52
2019-04-29T11:24:50.845Z,102085.98
2019-04-29T11:26:34.933Z,102088.67
2019-04-29T11:27:48.874Z,102088.64
2019-04-29T11:28:56.794Z,102082.82
2019-04-29T11:30:05.511Z,102085.83
2019-04-29T11:31:14.025Z,102086.45
2019-04-29T11:32:31.495Z,102085.36
2019-04-29T11:33:45.631Z,102083.45
2019-04-29T11:35:29.824Z,102080.14
2019-04-29T11:36:38.991Z,102082.19
2019-04-29T11:37:45.707Z,102077.14
2019-04-29T11:38:52.816Z,102071.46
2019-04-29T11:40:00.079Z,102080.06
2019-04-29T11:41:07.020Z,102071.05
2019-04-29T11:42:14.849Z,102070.14
2019-04-29T11:43:22.537Z,102072.91
2019-04-29T11:44:31.846Z,102072.39
2019-04-29T11:45:40.321Z,102066.18
2019-04-29T11:46:48.991Z,102065.70
2019-04-29T11:47:55.880Z,102072.12
2019-04-29T11:49:04.822Z,102064.02
2019-04-29T11:50:20.843Z,102066.45
2019-04-29T11:52:09.325Z,102068.34
2019-04-29T11:53:04.261Z,102071.41
2019-04-29T11:54:12.830Z,102066.34
2019-04-29T11:55:20.261Z,102065.41
2019-04-29T11:56:27.787Z,102066.57
2019-04-29T11:57:47.246Z,102063.40
2019-04-29T11:59:09.752Z,102065.61
2019-04-29T12:00:42.230Z,102068.25
2019-04-29T12:02:07.353Z,102067.41
2019-04-29T12:03:18.968Z,102065.30
2019-04-29T12:04:35.576Z,102066.54
2019-04-29T12:05:46.296Z,102062.00
2019-04-29T12:06:56.341Z,102063.36
2019-04-29T12:08:05.064Z,102059.27
2019-04-29T12:09:11.082Z,102061.64
2019-04-29T12:10:17.857Z,102057.13
2019-04-29T12:11:28.170Z,102055.09
2019-04-29T12:12:33.351Z,102060.66
2019-04-29T12:13:47.014Z,102058.34
2019-04-29T12:15:13.753Z,102061.70
2019-04-29T12:16:31.795Z,102060.44
2019-04-29T12:17:56.448Z,102052.30
2019-04-29T12:19:11.522Z,102058.86
2019-04-29T12:20:24.101Z,102053.30
2019-04-29T12:21:33.068Z,102055.02
2019-04-29T12:22:48.147Z,102054.06
2019-04-29T12:23:52.151Z,102050.47
2019-04-29T12:24:58.049Z,102046.98
2019-04-29T12:26:04.995Z,102043.75
2019-04-29T12:27:14.874Z,102048.64
2019-04-29T12:28:21.060Z,102050.08
2019-04-29T12:29:27.803Z,102048.53
2019-04-29T12:30:38.481Z,102044.55
2019-04-29T12:32:03.097Z,102044.77
2019-04-29T12:33:21.515Z,102040.85
2019-04-29T12:34:50.322Z,102039.78
2019-04-29T12:36:03.191Z,102040.13
2019-04-29T12:37:20.325Z,102038.80
2019-04-29T12:38:52.275Z,102035.75
2019-04-29T12:40:19.997Z,102030.41
2019-04-29T12:42:04.465Z,102041.55
2019-04-29T12:43:32.320Z,102035.50
2019-04-29T12:45:03.942Z,102031.59
2019-04-29T12:46:18.784Z,102018.77
2019-04-29T12:47:33.808Z,102017.81
2019-04-29T12:48:41.038Z,102025.73
2019-04-29T12:49:48.222Z,102025.70
2019-04-29T12:50:57.618Z,102017.94
2019-04-29T12:52:03.721Z,102023.95
2019-04-29T12:53:10.788Z,102021.02
2019-04-29T12:54:18.803Z,102021.19
2019-04-29T12:55:44.329Z,102023.45
2019-04-29T12:56:43.163Z,102017.98
2019-04-29T12:57:51.497Z,102019.50
2019-04-29T12:59:00.137Z,102015.73
2019-04-29T13:00:09.827Z,102020.90
2019-04-29T13:01:50.382Z,102022.55
2019-04-29T13:03:13.019Z,102023.06
2019-04-29T13:04:51.540Z,102022.16
2019-04-29T13:06:09.867Z,102025.64
2019-04-29T13:07:38.978Z,102025.64
2019-04-29T13:08:48.286Z,102025.58
2019-04-29T13:09:57.195Z,102016.63
2019-04-29T13:11:05.632Z,102022.41
2019-04-29T13:12:19.398Z,102018.41
2019-04-29T13:13:22.031Z,102017.50
2019-04-29T13:14:33.240Z,102014.02
2019-04-29T13:15:56.645Z,102014.56
2019-04-29T13:17:14.745Z,102013.84
2019-04-29T13:18:29.308Z,102017.52
2019-04-29T13:19:46.087Z,102003.22
2019-04-29T13:20:53.689Z,102006.52
2019-04-29T13:22:01.137Z,102006.45
2019-04-29T13:23:17.754Z,102002.71
2019-04-29T13:24:24.137Z,102009.56
2019-04-29T13:25:26.790Z,102004.71
2019-04-29T13:26:37.348Z,102000.55
2019-04-29T13:27:42.327Z,101998.77